Airfield :
LOGIN :

Register | Disclaimer

   EN    FR    IT 

 










Legend :    VFR   Marginal VFR   IFR   Intensive IFR   Very Intensive IFR
Visi :
Ceiling :
>= 8 km
>= 3000ft
5 to 8 km
1000 to 3000 ft
1500m to 5 km
500 to 1000 ft
800 to 1500m
200 to 500 ft
< 800m
< 200 ft
Symbols :   Thunderstorms  Fog  Heavy snow  Heavy precipitations  Wind > 20 kt
SIGMETs :     Misc.  Thunderstorms  Icing  Turbulence  Mountain Waves  Volcanic Ashes






- Airport Elevation : 416 ft
- IATA code : OVD


LEAS - Asturias

CURRENT METAR :
  • 220530Z 10005KT 060V130 8000 SCT020 BKN045 08/08 Q1025 NOSIG

EXPIRED METARs :
  • 220500Z 12003KT 080V170 8000 SCT020 BKN040 08/07 Q1025 NOSIG
  • 220430Z AUTO VRB01KT 9999 BKN036 BKN044 OVC050 08/07 Q1025
  • 220400Z AUTO 09003KT 050V130 9999 FEW029 BKN048 OVC057 08/07 Q1026
  • 220330Z AUTO 07004KT 040V110 9999 OVC056 08/07 Q1026
  • 220300Z AUTO 09004KT 050V160 9999 SCT043 BKN058 08/07 Q1026
  • 220230Z AUTO 11003KT 050V160 9999 SCT015 SCT021 OVC035 08/07 Q1027

TAF TAF LEAS
Valid from the 22 at 03:00 until the 23 at 03:00 UTC


220200Z 2203/2303 10009KT 9999 SCT020 BKN025 TX11/2214Z TN05/2203Z
PROB30
TEMPO 2203/2209 3000 -RA BKN014
TEMPO 2212/2215 10015G25KT
PROB40
TEMPO 2209/2303 3000 RA BKN010



MET'MAP, your aeronautical weather chart ! - Copyright ORBIFLY December 2007 - Disclaimer

ORBIFLY MET'MAP TEAM :

Programming & Development : Alexandra Zaïnal
Concept & original design : Baudouin d'Aumeries
Assistance for programming : Marc-Olivier Méhu
Technical & hardware support : Manuel Goepfert

Contact : metmap@orbifly.com




SOURCES & CREDITS :

   NOAA